Nearby METAR Reports

 

KFIT - Fitchburg, Massachusetts, USA
Distance from station: E 7mi, 11km
Updated: Sat, 08/19/2017 7:52pm
Clear
Clear
 Wind from calm
Wind: Calm
Temperature: 77°F , 25°C
Dew Point: 64°F , 18°C
Humidity: 65%
Barometer: 29.82 inHg , 1009.8 hPa
Clouds: Clear
Visibility: 10 miles , 16 km
2017/08/19 23:52 KFIT 192352Z AUTO 00000KT 10SM CLR 25/18 A2982 RMK AO2 SLP097 T02500183 10311 20250 53007
KAFN - Jaffrey, New Hampshire, USA
Distance from station: NNW 18mi, 29km
Updated: Sat, 08/19/2017 7:52pm
Clear
Clear
 Wind from calm
Wind: Calm
Temperature: 72°F , 22°C
Dew Point: 68°F , 20°C
Humidity: 88%
Barometer: 29.85 inHg , 1010.8 hPa
Clouds: Clear
Visibility: 10 miles , 16 km
2017/08/19 23:52 KAFN 192352Z AUTO 00000KT 10SM CLR 22/20 A2985 RMK AO2 SLP107 T02220200 10283 20222 53004
 
KORH - Worcester, Massachusetts, USA
Distance from station: S 20mi, 32km
Updated: Sat, 08/19/2017 7:54pm
Clear
Clear
 Wind from WSW
Wind: WSW 5 mph , 7 km/h
Temperature: 73°F , 23°C
Dew Point: 61°F , 16°C
Humidity: 65%
Barometer: 29.86 inHg , 1011.2 hPa
Clouds: Clear
Visibility: 10 miles , 16 km
2017/08/19 23:54 KORH 192354Z 25004KT 10SM CLR 23/16 A2986 RMK AO2 SLP106 T02330156 10283 20233 53006
KORE - Orange, Massachusetts, USA
Distance from station: W 20mi, 33km
Updated: Sat, 08/19/2017 7:52pm
Clear
Clear
 Wind from WSW
Wind: WSW 3 mph , 6 km/h
Temperature: 72°F , 22°C
Dew Point: 68°F , 20°C
Humidity: 88%
Barometer: 29.82 inHg , 1009.8 hPa
Clouds: Clear
Visibility: 10 miles , 16 km
2017/08/19 23:52 KORE 192352Z AUTO 24003KT 10SM CLR 22/20 A2982 RMK AO2 SLP096 T02220200 10289 20222 53005 TSNO
 
KASH - Nashua/Boire Fld, New Hampshire, USA
Distance from station: NE 24mi, 39km
Updated: Sat, 08/19/2017 7:56pm
Clear
Clear
 Wind from calm
Wind: Calm
Temperature: 73°F , 23°C
Dew Point: 68°F , 20°C
Humidity: 83%
Barometer: 29.81 inHg , 1009.5 hPa
Clouds: Clear
Visibility: 10 miles , 16 km
2017/08/19 23:56 KASH 192356Z 00000KT 10SM CLR 23/20 A2981 RMK AO2 SLP101 T02280200 10300 20228 53007
KEEN - Keene/Dillant, New Hampshire, USA
Distance from station: NW 30mi, 48km
Updated: Sat, 08/19/2017 7:56pm

 
2017/08/19 23:56 KEEN 192356Z AUTO RMK AO2 SLPNO 6//// PWINO FZRANO $
 
KBOS - Boston, Massachusetts, USA
Distance from station: ESE 46mi, 74km
Updated: Sat, 08/19/2017 8:04pm
Mostly cloudy
Mostly cloudy
 Wind from ENE
Wind: ENE 3 mph , 6 km/h
Temperature: 66°F , 19°C
Dew Point: 64°F , 18°C
Humidity: 94%
Barometer: 29.81 inHg , 1009.5 hPa
Clouds: Mostly cloudy
Visibility: 7 miles , 11 km
Cloud details: Few Clouds 200 ft
Few Clouds 16000 ft
Mostly cloudy 25000 ft
2017/08/20 00:04 KBOS 200004Z 06003KT 7SM FEW002 FEW160 BKN250 19/18 A2981 RMK AO2 T01890183 $